createdAt,value
2023-03-16T00:00:40.003Z,0
2023-03-16T00:01:40.021Z,0
2023-03-16T00:02:40.031Z,0
2023-03-16T00:03:40.050Z,0
2023-03-16T00:04:40.005Z,0
2023-03-16T00:05:40.024Z,0
2023-03-16T00:06:40.015Z,0
2023-03-16T00:07:40.042Z,0
2023-03-16T00:08:40.105Z,0
2023-03-16T00:09:40.007Z,0
2023-03-16T00:10:40.003Z,0
2023-03-16T00:11:39.998Z,0
2023-03-16T00:12:40.045Z,0
2023-03-16T00:13:40.005Z,0
2023-03-16T00:14:40.032Z,0
2023-03-16T00:15:40.011Z,0
2023-03-16T00:16:40.056Z,0
2023-03-16T00:17:40.065Z,0
2023-03-16T00:18:40.009Z,0
2023-03-16T00:19:40.006Z,0
2023-03-16T00:20:40.016Z,0
2023-03-16T00:21:40.017Z,0
2023-03-16T00:22:40.010Z,0
2023-03-16T00:23:40.032Z,0
2023-03-16T00:24:40.020Z,0
2023-03-16T00:25:40.003Z,0
2023-03-16T00:26:40.047Z,0
2023-03-16T00:27:40.026Z,0
2023-03-16T00:28:40.033Z,0
2023-03-16T00:29:40.012Z,0
2023-03-16T00:30:40.004Z,0
2023-03-16T00:31:40.074Z,0
2023-03-16T00:32:40.045Z,0
2023-03-16T00:33:40.050Z,0
2023-03-16T00:34:40.028Z,0
2023-03-16T00:35:40.045Z,0
2023-03-16T00:36:40.006Z,0
2023-03-16T00:37:40.107Z,0
2023-03-16T00:38:40.012Z,0
2023-03-16T00:39:40.001Z,0
2023-03-16T00:40:39.987Z,0
2023-03-16T00:41:40.030Z,0
2023-03-16T00:42:40.008Z,0
2023-03-16T00:43:39.996Z,0
2023-03-16T00:44:40.419Z,0
2023-03-16T00:45:40.026Z,0
2023-03-16T00:46:39.996Z,0
2023-03-16T00:47:40.004Z,0
2023-03-16T00:48:40.031Z,0
2023-03-16T00:49:39.994Z,0
2023-03-16T00:50:39.996Z,0
2023-03-16T00:51:40.010Z,0
2023-03-16T00:52:39.998Z,0
2023-03-16T00:53:39.998Z,0
2023-03-16T00:54:39.996Z,0
2023-03-16T00:55:40.090Z,0
2023-03-16T00:56:40.340Z,0
2023-03-16T00:57:40.618Z,0
2023-03-16T00:58:40.277Z,0
2023-03-16T00:59:40.005Z,0
2023-03-16T01:00:39.999Z,0
2023-03-16T01:01:40.058Z,0
2023-03-16T01:02:40.003Z,0
2023-03-16T01:03:40.000Z,0
2023-03-16T01:04:40.004Z,0
2023-03-16T01:05:40.005Z,0
2023-03-16T01:06:40.069Z,0
2023-03-16T01:07:40.032Z,0
2023-03-16T01:08:40.002Z,0
2023-03-16T01:09:39.991Z,0
2023-03-16T01:10:40.024Z,0
2023-03-16T01:11:40.001Z,0
2023-03-16T01:12:40.251Z,0
2023-03-16T01:13:40.041Z,0
2023-03-16T01:14:40.731Z,0
2023-03-16T01:15:40.251Z,0
2023-03-16T01:16:40.153Z,0
2023-03-16T01:17:40.273Z,0
2023-03-16T01:18:40.555Z,0
2023-03-16T01:19:40.004Z,0
2023-03-16T01:20:39.999Z,0
2023-03-16T01:21:40.286Z,0
2023-03-16T01:22:40.008Z,0
2023-03-16T01:23:40.073Z,0
2023-03-16T01:24:40.282Z,0
2023-03-16T01:25:40.213Z,0
2023-03-16T01:26:40.397Z,0
2023-03-16T01:27:40.201Z,0
2023-03-16T01:28:40.011Z,0
2023-03-16T01:29:40.046Z,0
2023-03-16T01:30:40.116Z,0
2023-03-16T01:31:40.063Z,0
2023-03-16T01:32:40.116Z,0
2023-03-16T01:33:39.998Z,0
2023-03-16T01:34:40.006Z,0
2023-03-16T01:35:40.026Z,0
2023-03-16T01:36:39.997Z,0
2023-03-16T01:37:39.993Z,0
2023-03-16T01:38:39.993Z,0
2023-03-16T01:39:40.028Z,0
2023-03-16T01:40:40.011Z,0
2023-03-16T01:41:40.022Z,0
2023-03-16T01:42:40.000Z,0
2023-03-16T01:43:40.011Z,0
2023-03-16T01:44:40.005Z,0
2023-03-16T01:45:40.003Z,0
2023-03-16T01:46:40.095Z,0
2023-03-16T01:47:40.016Z,0
2023-03-16T01:48:40.006Z,0
2023-03-16T01:49:40.001Z,0
2023-03-16T01:50:39.999Z,0
2023-03-16T01:51:40.040Z,0
2023-03-16T01:52:40.033Z,0
2023-03-16T01:53:40.260Z,0
2023-03-16T01:54:40.006Z,0
2023-03-16T01:55:39.996Z,0
2023-03-16T01:56:39.986Z,0
2023-03-16T01:57:40.006Z,0
2023-03-16T01:58:40.073Z,0
2023-03-16T01:59:40.010Z,0
2023-03-16T02:00:40.020Z,0
2023-03-16T02:01:40.062Z,0
2023-03-16T02:02:40.006Z,0
2023-03-16T02:03:40.127Z,0
2023-03-16T02:04:40.136Z,0
2023-03-16T02:05:40.022Z,0
2023-03-16T02:06:40.027Z,0
2023-03-16T02:07:40.000Z,0
2023-03-16T02:08:40.030Z,0
2023-03-16T02:09:40.009Z,0
2023-03-16T02:10:40.004Z,0
2023-03-16T02:11:40.010Z,0
2023-03-16T02:12:40.001Z,0
2023-03-16T02:13:40.017Z,0
2023-03-16T02:14:40.002Z,0
2023-03-16T02:15:40.042Z,0
2023-03-16T02:16:40.037Z,0
2023-03-16T02:17:40.006Z,0
2023-03-16T02:18:39.997Z,0
2023-03-16T02:19:40.007Z,0
2023-03-16T02:20:40.018Z,0
2023-03-16T02:21:39.998Z,0
2023-03-16T02:22:40.003Z,0
2023-03-16T02:23:39.997Z,0
2023-03-16T02:24:39.999Z,0
2023-03-16T02:25:39.999Z,0
2023-03-16T02:26:40.009Z,0
2023-03-16T02:27:39.995Z,0
2023-03-16T02:28:39.996Z,0
2023-03-16T02:29:40.006Z,0
2023-03-16T02:30:40.069Z,0
2023-03-16T02:31:40.013Z,0
2023-03-16T02:32:40.050Z,0
2023-03-16T02:33:40.020Z,0
2023-03-16T02:34:39.999Z,0
2023-03-16T02:35:40.051Z,0
2023-03-16T02:36:40.001Z,0
2023-03-16T02:37:40.019Z,0
2023-03-16T02:38:40.022Z,0
2023-03-16T02:39:40.000Z,0
2023-03-16T02:40:40.002Z,0
2023-03-16T02:41:40.008Z,0
2023-03-16T02:42:40.008Z,0
2023-03-16T02:43:39.993Z,0
2023-03-16T02:44:39.990Z,0
2023-03-16T02:45:40.007Z,0
2023-03-16T02:46:40.050Z,0
2023-03-16T02:47:40.010Z,0
2023-03-16T02:48:40.016Z,0
2023-03-16T02:49:40.007Z,0
2023-03-16T02:50:40.010Z,0
2023-03-16T02:51:39.996Z,0
2023-03-16T02:52:40.000Z,0
2023-03-16T02:53:39.998Z,0
2023-03-16T02:54:40.006Z,0
2023-03-16T02:55:40.003Z,0
2023-03-16T02:56:40.011Z,0
2023-03-16T02:57:40.091Z,0
2023-03-16T02:58:40.001Z,0
2023-03-16T02:59:40.019Z,0
2023-03-16T03:00:40.006Z,0
2023-03-16T03:01:40.012Z,0
2023-03-16T03:02:40.000Z,0
2023-03-16T03:03:40.002Z,0
2023-03-16T03:04:40.004Z,0
2023-03-16T03:05:40.007Z,0
2023-03-16T03:06:39.997Z,0
2023-03-16T03:07:39.999Z,0
2023-03-16T03:08:39.988Z,0
2023-03-16T03:09:40.000Z,0
2023-03-16T03:10:40.007Z,0
2023-03-16T03:11:40.005Z,0
2023-03-16T03:12:39.998Z,0
2023-03-16T03:13:40.133Z,0
2023-03-16T03:14:40.408Z,0
2023-03-16T03:15:40.463Z,0
2023-03-16T03:16:40.245Z,0
2023-03-16T03:17:39.993Z,0
2023-03-16T03:18:40.000Z,0
2023-03-16T03:19:39.997Z,0
2023-03-16T03:20:39.991Z,0
2023-03-16T03:21:40.052Z,0
2023-03-16T03:22:39.997Z,0
2023-03-16T03:23:40.024Z,0
2023-03-16T03:24:40.005Z,0
2023-03-16T03:25:39.986Z,0
2023-03-16T03:26:39.993Z,0
2023-03-16T03:27:40.081Z,0
2023-03-16T03:28:40.120Z,0
2023-03-16T03:29:39.992Z,0
2023-03-16T03:30:39.995Z,0
2023-03-16T03:31:40.084Z,0
2023-03-16T03:32:40.131Z,0
2023-03-16T03:33:40.016Z,0
2023-03-16T03:34:39.991Z,0
2023-03-16T03:35:40.061Z,0
2023-03-16T03:36:39.997Z,0
2023-03-16T03:37:39.989Z,0
2023-03-16T03:38:39.998Z,0
2023-03-16T03:39:40.011Z,0
2023-03-16T03:40:39.991Z,0
2023-03-16T03:41:40.023Z,0
2023-03-16T03:42:40.013Z,0
2023-03-16T03:43:40.002Z,0
2023-03-16T03:44:39.994Z,0
2023-03-16T03:45:40.043Z,0
2023-03-16T03:46:40.175Z,0
2023-03-16T03:47:40.009Z,0
2023-03-16T03:48:40.024Z,0
2023-03-16T03:49:40.008Z,0
2023-03-16T03:50:40.030Z,0
2023-03-16T03:51:39.998Z,0
2023-03-16T03:52:40.049Z,0
2023-03-16T03:53:40.225Z,0
2023-03-16T03:54:40.257Z,0
2023-03-16T03:55:40.279Z,0
2023-03-16T03:56:40.363Z,0
2023-03-16T03:57:40.344Z,0
2023-03-16T03:58:40.597Z,0
2023-03-16T03:59:39.991Z,0
2023-03-16T04:00:39.992Z,0
2023-03-16T04:01:40.040Z,0
2023-03-16T04:02:40.117Z,0
2023-03-16T04:03:40.007Z,0
2023-03-16T04:04:40.018Z,0
2023-03-16T04:05:39.994Z,0
2023-03-16T04:06:39.997Z,0
2023-03-16T04:07:40.013Z,0
2023-03-16T04:08:40.002Z,0
2023-03-16T04:09:40.000Z,0
2023-03-16T04:10:40.017Z,0
2023-03-16T04:11:40.009Z,0
2023-03-16T04:12:40.110Z,0
2023-03-16T04:13:39.988Z,0
2023-03-16T04:14:39.998Z,0
2023-03-16T04:15:40.004Z,0
2023-03-16T04:16:40.048Z,0
2023-03-16T04:17:40.015Z,0
2023-03-16T04:18:39.993Z,0
2023-03-16T04:19:39.993Z,0
2023-03-16T04:20:40.007Z,0
2023-03-16T04:21:40.002Z,0
2023-03-16T04:22:40.009Z,0
2023-03-16T04:23:40.002Z,0
2023-03-16T04:24:40.007Z,0
2023-03-16T04:25:40.046Z,0
2023-03-16T04:26:40.096Z,0
2023-03-16T04:27:40.002Z,0
2023-03-16T04:28:40.024Z,0
2023-03-16T04:29:40.007Z,0
2023-03-16T04:30:40.041Z,0
2023-03-16T04:31:40.153Z,0
2023-03-16T04:32:40.442Z,0
2023-03-16T04:33:40.676Z,0
2023-03-16T04:34:39.999Z,0
2023-03-16T04:35:40.060Z,0
2023-03-16T04:36:39.997Z,0
2023-03-16T04:37:39.998Z,0
2023-03-16T04:38:40.002Z,0
2023-03-16T04:39:40.017Z,0
2023-03-16T04:40:40.000Z,0
2023-03-16T04:41:40.023Z,0
2023-03-16T04:42:40.012Z,0
2023-03-16T04:43:39.997Z,0
2023-03-16T04:44:39.995Z,0
2023-03-16T04:45:40.201Z,0
2023-03-16T04:46:40.140Z,0
2023-03-16T04:47:40.286Z,0
2023-03-16T04:48:40.167Z,0
2023-03-16T04:49:39.996Z,0
2023-03-16T04:50:39.992Z,0
2023-03-16T04:51:40.004Z,0
2023-03-16T04:52:40.283Z,0
2023-03-16T04:53:40.104Z,0
2023-03-16T04:54:40.284Z,0
2023-03-16T04:55:39.996Z,0
2023-03-16T04:56:40.148Z,0
2023-03-16T04:57:40.030Z,0
2023-03-16T04:58:39.999Z,0
2023-03-16T04:59:40.136Z,0
2023-03-16T05:00:40.005Z,0.23
2023-03-16T05:01:40.330Z,0.23
2023-03-16T05:02:40.040Z,0.23
2023-03-16T05:03:40.269Z,0.23
2023-03-16T05:04:40.015Z,0.46
2023-03-16T05:05:40.119Z,0.46
2023-03-16T05:06:39.999Z,0.69
2023-03-16T05:07:40.022Z,0.69
2023-03-16T05:08:39.994Z,0.92
2023-03-16T05:09:40.052Z,1.15
2023-03-16T05:10:39.996Z,1.38
2023-03-16T05:11:39.998Z,1.61
2023-03-16T05:12:40.018Z,2.07
2023-03-16T05:13:40.022Z,2.53
2023-03-16T05:14:40.009Z,2.99
2023-03-16T05:15:40.033Z,3.68
2023-03-16T05:16:39.997Z,4.37
2023-03-16T05:17:40.006Z,5.29
2023-03-16T05:18:39.993Z,6.44
2023-03-16T05:19:39.996Z,7.82
2023-03-16T05:20:40.004Z,9.2
2023-03-16T05:21:40.031Z,10.83
2023-03-16T05:22:40.009Z,13.33
2023-03-16T05:23:39.994Z,16.67
2023-03-16T05:24:40.018Z,20
2023-03-16T05:25:39.998Z,23.33
2023-03-16T05:26:40.004Z,27.5
2023-03-16T05:27:40.077Z,31.67
2023-03-16T05:28:40.288Z,38.33
2023-03-16T05:29:40.003Z,45
2023-03-16T05:30:39.990Z,52.5
2023-03-16T05:31:40.059Z,60
2023-03-16T05:32:40.088Z,68.33
2023-03-16T05:33:40.000Z,77.5
2023-03-16T05:34:40.004Z,86.67
2023-03-16T05:35:40.134Z,97.5
2023-03-16T05:36:40.115Z,109.17
2023-03-16T05:37:40.020Z,124.17
2023-03-16T05:38:40.024Z,141.67
2023-03-16T05:39:39.995Z,160
2023-03-16T05:40:40.000Z,177.5
2023-03-16T05:41:39.997Z,195.83
2023-03-16T05:42:39.998Z,213.33
2023-03-16T05:43:40.011Z,230.83
2023-03-16T05:44:40.006Z,249.17
2023-03-16T05:45:40.023Z,268.33
2023-03-16T05:46:40.054Z,288.33
2023-03-16T05:47:40.005Z,314.17
2023-03-16T05:48:39.999Z,350.83
2023-03-16T05:49:40.008Z,392.5
2023-03-16T05:50:40.014Z,430.83
2023-03-16T05:51:40.004Z,461.67
2023-03-16T05:52:40.010Z,491.67
2023-03-16T05:53:40.005Z,526.67
2023-03-16T05:54:39.995Z,565.83
2023-03-16T05:55:40.031Z,610
2023-03-16T05:56:40.013Z,655.83
2023-03-16T05:57:39.997Z,698.33
2023-03-16T05:58:39.996Z,739.17
2023-03-16T05:59:40.000Z,773.33
2023-03-16T06:00:40.000Z,798.33
2023-03-16T06:01:40.009Z,815.83
2023-03-16T06:02:40.015Z,834.17
2023-03-16T06:03:40.044Z,841.67
2023-03-16T06:04:40.026Z,845.83
2023-03-16T06:05:39.999Z,861.67
2023-03-16T06:06:40.102Z,882.5
2023-03-16T06:07:40.019Z,906.67
2023-03-16T06:08:40.158Z,929.17
2023-03-16T06:09:40.230Z,955.83
2023-03-16T06:10:40.006Z,995.83
2023-03-16T06:11:40.018Z,1048.33
2023-03-16T06:12:40.000Z,1108.33
2023-03-16T06:13:39.999Z,1166.67
2023-03-16T06:14:39.996Z,1230
2023-03-16T06:15:39.997Z,1300.83
2023-03-16T06:16:40.062Z,1381.67
2023-03-16T06:17:40.009Z,1466.67
2023-03-16T06:18:40.012Z,1533.33
2023-03-16T06:19:39.998Z,1579.17
2023-03-16T06:20:40.013Z,1618.33
2023-03-16T06:21:40.023Z,1676.67
2023-03-16T06:22:40.005Z,1755
2023-03-16T06:23:40.016Z,1840.83
2023-03-16T06:24:40.007Z,1887.5
2023-03-16T06:25:40.777Z,1852.5
2023-03-16T06:26:40.011Z,1765.83
2023-03-16T06:27:39.998Z,1696.67
2023-03-16T06:28:40.007Z,1661.67
2023-03-16T06:29:40.016Z,1667.5
2023-03-16T06:30:40.007Z,1705
2023-03-16T06:31:40.073Z,1756.67
2023-03-16T06:32:40.025Z,1819.17
2023-03-16T06:33:39.998Z,1891.67
2023-03-16T06:34:39.995Z,1978.33
2023-03-16T06:35:40.079Z,2085
2023-03-16T06:36:40.009Z,2206.67
2023-03-16T06:37:40.032Z,2324.17
2023-03-16T06:38:40.259Z,2430
2023-03-16T06:39:40.200Z,2530.83
2023-03-16T06:40:40.462Z,2624.17
2023-03-16T06:41:40.301Z,2705
2023-03-16T06:42:40.094Z,2764.17
2023-03-16T06:43:40.311Z,2797.5
2023-03-16T06:44:40.490Z,2820
2023-03-16T06:45:40.318Z,2838.33
2023-03-16T06:46:40.731Z,2860.83
2023-03-16T06:47:40.326Z,2894.17
2023-03-16T06:48:40.128Z,2948.33
2023-03-16T06:49:40.860Z,3018.33
2023-03-16T06:50:41.159Z,3093.33
2023-03-16T06:51:40.099Z,3150.83
2023-03-16T06:52:40.284Z,3170.83
2023-03-16T06:53:40.041Z,3160
2023-03-16T06:54:40.007Z,3159.17
2023-03-16T06:55:40.017Z,3199.17
2023-03-16T06:56:40.048Z,3291.67
2023-03-16T06:57:40.018Z,3408.33
2023-03-16T06:58:40.012Z,3513.33
2023-03-16T06:59:40.003Z,3591.67
2023-03-16T07:00:40.004Z,3660
2023-03-16T07:01:40.014Z,3726.67
2023-03-16T07:02:40.014Z,3815.83
2023-03-16T07:03:40.023Z,3930
2023-03-16T07:04:40.050Z,4079.17
2023-03-16T07:05:40.028Z,4280.83
2023-03-16T07:06:40.008Z,4486.67
2023-03-16T07:07:40.039Z,4634.17
2023-03-16T07:08:40.013Z,4716.67
2023-03-16T07:09:41.714Z,4757.5
2023-03-16T07:10:40.066Z,4775
2023-03-16T07:11:40.115Z,4786.67
2023-03-16T07:12:40.036Z,4794.17
2023-03-16T07:13:40.008Z,4755
2023-03-16T07:14:39.988Z,4724.17
2023-03-16T07:15:40.055Z,4693.33
2023-03-16T07:16:40.078Z,4674.17
2023-03-16T07:17:40.029Z,4670.83
2023-03-16T07:18:40.013Z,4660
2023-03-16T07:19:40.012Z,4649.17
2023-03-16T07:20:40.002Z,4669.17
2023-03-16T07:21:40.023Z,4712.5
2023-03-16T07:22:40.000Z,4795
2023-03-16T07:23:39.999Z,4940.83
2023-03-16T07:24:40.008Z,5139.17
2023-03-16T07:25:40.055Z,5331.67
2023-03-16T07:26:40.008Z,5508.33
2023-03-16T07:27:40.001Z,5660
2023-03-16T07:28:39.997Z,5776.67
2023-03-16T07:29:40.000Z,5880.83
2023-03-16T07:30:40.472Z,5986.67
2023-03-16T07:31:40.028Z,6136.67
2023-03-16T07:32:40.016Z,6329.17
2023-03-16T07:33:40.036Z,6507.5
2023-03-16T07:34:39.996Z,6663.33
2023-03-16T07:35:40.077Z,6831.67
2023-03-16T07:36:39.990Z,6925.83
2023-03-16T07:37:40.009Z,7143.33
2023-03-16T07:38:40.044Z,7535
2023-03-16T07:39:40.185Z,7948.33
2023-03-16T07:40:40.043Z,8267.5
2023-03-16T07:41:39.998Z,8273.33
2023-03-16T07:42:40.020Z,7893.33
2023-03-16T07:43:40.005Z,7306.67
2023-03-16T07:44:39.993Z,6652.5
2023-03-16T07:45:40.050Z,6074.17
2023-03-16T07:46:40.001Z,5665
2023-03-16T07:47:40.006Z,5422.5
2023-03-16T07:48:40.012Z,5325.83
2023-03-16T07:49:39.995Z,5372.5
2023-03-16T07:50:40.035Z,5549.17
2023-03-16T07:51:40.023Z,5840
2023-03-16T07:52:40.199Z,6207.5
2023-03-16T07:53:40.038Z,6650
2023-03-16T07:54:39.998Z,7171.67
2023-03-16T07:55:40.011Z,7620.83
2023-03-16T07:56:48.632Z,7928.33
2023-03-16T07:57:40.018Z,8113.33
2023-03-16T07:58:40.006Z,8299.17
2023-03-16T07:59:40.007Z,8483.33
2023-03-16T08:00:40.023Z,8639.17
2023-03-16T08:01:40.000Z,8870
2023-03-16T08:02:40.149Z,9089.17
2023-03-16T08:03:40.043Z,9158.33
2023-03-16T08:04:39.999Z,9062.5
2023-03-16T08:05:40.005Z,8732.5
2023-03-16T08:06:40.458Z,8318.33
2023-03-16T08:07:40.676Z,7959.17
2023-03-16T08:08:40.800Z,7893.33
2023-03-16T08:09:40.000Z,7986.67
2023-03-16T08:10:40.013Z,8242.5
2023-03-16T08:11:40.022Z,8488.33
2023-03-16T08:12:40.051Z,8757.5
2023-03-16T08:13:40.005Z,9086.67
2023-03-16T08:14:40.000Z,9528.33
2023-03-16T08:15:40.089Z,9843.33
2023-03-16T08:16:40.034Z,10134.17
2023-03-16T08:17:40.009Z,10244.17
2023-03-16T08:18:40.011Z,10430
2023-03-16T08:19:40.001Z,10343.33
2023-03-16T08:20:40.025Z,10379.17
2023-03-16T08:21:53.276Z,10455
2023-03-16T08:22:40.005Z,10441.67
2023-03-16T08:23:40.024Z,10374.17
2023-03-16T08:24:40.004Z,10197.5
2023-03-16T08:25:40.011Z,9849.17
2023-03-16T08:26:40.036Z,9405
2023-03-16T08:27:40.066Z,9045.83
2023-03-16T08:28:40.068Z,8885
2023-03-16T08:29:40.015Z,8728.33
2023-03-16T08:30:40.038Z,8442.5
2023-03-16T08:31:40.090Z,8240
2023-03-16T08:32:40.183Z,8183.33
2023-03-16T08:33:40.149Z,8266.67
2023-03-16T08:34:40.473Z,8449.17
2023-03-16T08:35:40.057Z,8448.33
2023-03-16T08:36:40.062Z,8501.67
2023-03-16T08:37:40.290Z,8422.5
2023-03-16T08:38:40.167Z,8492.5
2023-03-16T08:39:40.270Z,8675
2023-03-16T08:40:40.023Z,8562.5
2023-03-16T08:41:40.010Z,8508.33
2023-03-16T08:42:40.027Z,8729.17
2023-03-16T08:43:40.019Z,9350.83
2023-03-16T08:44:40.023Z,9945.83
2023-03-16T08:45:39.999Z,10495.83
2023-03-16T08:46:40.085Z,11189.17
2023-03-16T08:47:40.044Z,11947.5
2023-03-16T08:48:40.012Z,12206.67
2023-03-16T08:49:40.187Z,11494.17
2023-03-16T08:50:40.020Z,11865
2023-03-16T08:51:40.011Z,12064.17
2023-03-16T08:52:39.999Z,12355
2023-03-16T08:53:40.011Z,12235.83
2023-03-16T08:54:43.031Z,11067.5
2023-03-16T08:55:40.015Z,11164.17
2023-03-16T08:56:40.019Z,11100
2023-03-16T08:57:40.016Z,11290
2023-03-16T08:58:40.002Z,10376.67
2023-03-16T08:59:39.996Z,10193.33
2023-03-16T09:00:40.000Z,10741.67
2023-03-16T09:01:40.035Z,11038.33
2023-03-16T09:02:40.004Z,11258.33
2023-03-16T09:03:40.443Z,11668.33
2023-03-16T09:04:40.123Z,11984.17
2023-03-16T09:05:40.005Z,12470.83
2023-03-16T09:06:40.011Z,12860.83
2023-03-16T09:07:40.018Z,13232.5
2023-03-16T09:08:40.003Z,13850.83
2023-03-16T09:09:40.007Z,14349.17
2023-03-16T09:10:40.002Z,14647.5
2023-03-16T09:11:40.004Z,14645
2023-03-16T09:12:40.044Z,14506.67
2023-03-16T09:13:40.271Z,14592.5
2023-03-16T09:14:40.056Z,14594.17
2023-03-16T09:15:40.278Z,14505.83
2023-03-16T09:16:40.222Z,14587.5
2023-03-16T09:17:40.022Z,14748.33
2023-03-16T09:18:40.270Z,14886.67
2023-03-16T09:19:50.916Z,14876.67
2023-03-16T09:20:40.592Z,14879.17
2023-03-16T09:21:40.111Z,14614.17
2023-03-16T09:22:39.999Z,14542.5
2023-03-16T09:23:40.009Z,14520.83
2023-03-16T09:24:40.007Z,14514.17
2023-03-16T09:25:40.031Z,14261.67
2023-03-16T09:26:40.067Z,14000
2023-03-16T09:27:40.027Z,13799.17
2023-03-16T09:28:40.003Z,13800
2023-03-16T09:29:39.996Z,13891.67
2023-03-16T09:30:40.009Z,13941.67
2023-03-16T09:31:40.181Z,13890.83
2023-03-16T09:32:40.154Z,13805
2023-03-16T09:33:40.027Z,13766.67
2023-03-16T09:34:40.032Z,13875.83
2023-03-16T09:35:40.090Z,14060
2023-03-16T09:36:40.016Z,14248.33
2023-03-16T09:37:45.239Z,14366.67
2023-03-16T09:38:40.009Z,14452.5
2023-03-16T09:39:40.012Z,14440.83
2023-03-16T09:40:40.039Z,14304.17
2023-03-16T09:41:40.008Z,14114.17
2023-03-16T09:42:40.001Z,13866.67
2023-03-16T09:43:40.018Z,13487.5
2023-03-16T09:44:39.999Z,13085
2023-03-16T09:45:40.047Z,12748.33
2023-03-16T09:46:40.042Z,12477.5
2023-03-16T09:47:39.998Z,12272.5
2023-03-16T09:48:40.018Z,12143.33
2023-03-16T09:49:40.005Z,12079.17
2023-03-16T09:50:48.032Z,12067.5
2023-03-16T09:51:40.012Z,12090.83
2023-03-16T09:52:39.999Z,12136.67
2023-03-16T09:53:40.034Z,12217.5
2023-03-16T09:54:40.032Z,12317.5
2023-03-16T09:55:39.998Z,12430
2023-03-16T09:56:40.001Z,12535.83
2023-03-16T09:57:40.009Z,12626.67
2023-03-16T09:58:40.005Z,12691.67
2023-03-16T09:59:40.010Z,12721.67
2023-03-16T10:00:40.033Z,12724.17
2023-03-16T10:01:40.169Z,12713.33
2023-03-16T10:02:40.001Z,12703.33
2023-03-16T10:03:40.033Z,12689.17
2023-03-16T10:04:40.016Z,12656.67
2023-03-16T10:05:40.014Z,12612.5
2023-03-16T10:06:40.022Z,12589.17
2023-03-16T10:07:39.989Z,12617.5
2023-03-16T10:08:40.032Z,12710.83
2023-03-16T10:09:40.339Z,12864.17
2023-03-16T10:10:40.005Z,13098.33
2023-03-16T10:11:39.997Z,13375
2023-03-16T10:12:39.995Z,13699.17
2023-03-16T10:13:39.991Z,14052.5
2023-03-16T10:14:40.048Z,14345
2023-03-16T10:15:40.000Z,14586.67
2023-03-16T10:16:40.157Z,14750.83
2023-03-16T10:17:39.996Z,14800
2023-03-16T10:18:39.996Z,14680
2023-03-16T10:19:39.991Z,14530
2023-03-16T10:20:40.228Z,14391.67
2023-03-16T10:21:40.017Z,14326.67
2023-03-16T10:22:39.987Z,14296.67
2023-03-16T10:23:41.935Z,14320
2023-03-16T10:24:40.195Z,14403.33
2023-03-16T10:25:40.517Z,14375
2023-03-16T10:26:40.047Z,14294.17
2023-03-16T10:27:40.280Z,14160
2023-03-16T10:28:40.005Z,13975.83
2023-03-16T10:29:40.032Z,13613.33
2023-03-16T10:30:40.024Z,13177.5
2023-03-16T10:31:40.054Z,12809.17
2023-03-16T10:32:40.066Z,12466.67
2023-03-16T10:33:40.032Z,12204.17
2023-03-16T10:34:40.003Z,12038.33
2023-03-16T10:35:39.996Z,11978.33
2023-03-16T10:36:40.021Z,12011.67
2023-03-16T10:37:40.001Z,12130.83
2023-03-16T10:38:40.043Z,12334.17
2023-03-16T10:39:40.004Z,12630.83
2023-03-16T10:40:40.000Z,12972.5
2023-03-16T10:41:39.994Z,13355
2023-03-16T10:42:40.084Z,13814.17
2023-03-16T10:43:40.003Z,14451.67
2023-03-16T10:44:40.005Z,14858.33
2023-03-16T10:45:40.059Z,14913.33
2023-03-16T10:46:40.188Z,15061.67
2023-03-16T10:47:40.029Z,14826.67
2023-03-16T10:48:40.011Z,14996.67
2023-03-16T10:49:40.012Z,14864.17
2023-03-16T10:50:39.996Z,14281.67
2023-03-16T10:51:40.006Z,13709.17
2023-03-16T10:52:40.014Z,13553.33
2023-03-16T10:53:39.993Z,13887.5
2023-03-16T10:54:40.020Z,14641.67
2023-03-16T10:55:40.006Z,15959.17
2023-03-16T10:56:40.003Z,18146.67
2023-03-16T10:57:40.013Z,18575
2023-03-16T10:58:39.998Z,18774.17
2023-03-16T10:59:40.018Z,17740.83
2023-03-16T11:00:39.994Z,16430
2023-03-16T11:01:40.003Z,15554.17
2023-03-16T11:02:40.003Z,14989.17
2023-03-16T11:03:40.018Z,14380
2023-03-16T11:04:40.102Z,13857.5
2023-03-16T11:05:40.015Z,13747.5
2023-03-16T11:06:40.000Z,13926.67
2023-03-16T11:07:40.002Z,14372.5
2023-03-16T11:08:40.014Z,15094.17
2023-03-16T11:09:40.045Z,15744.17
2023-03-16T11:10:46.224Z,16046.67
2023-03-16T11:11:40.024Z,15983.33
2023-03-16T11:12:40.009Z,15662.5
2023-03-16T11:13:40.024Z,15000
2023-03-16T11:14:39.998Z,14565
2023-03-16T11:15:40.025Z,14431.67
2023-03-16T11:16:40.163Z,14317.5
2023-03-16T11:17:40.013Z,14015
2023-03-16T11:18:40.043Z,13820
2023-03-16T11:19:40.031Z,13710
2023-03-16T11:20:40.007Z,13064.17
2023-03-16T11:21:40.010Z,12343.33
2023-03-16T11:22:40.024Z,11882.5
2023-03-16T11:23:40.173Z,11565.83
2023-03-16T11:24:40.014Z,11555
2023-03-16T11:25:40.022Z,12019.17
2023-03-16T11:26:40.007Z,12285
2023-03-16T11:27:40.019Z,12566.67
2023-03-16T11:28:40.014Z,13091.67
2023-03-16T11:29:40.006Z,13840
2023-03-16T11:30:40.007Z,13707.5
2023-03-16T11:31:40.031Z,13124.17
2023-03-16T11:32:40.060Z,12360.83
2023-03-16T11:33:40.012Z,12037.5
2023-03-16T11:34:40.006Z,12598.33
2023-03-16T11:35:46.723Z,12429.17
2023-03-16T11:36:40.030Z,12580
2023-03-16T11:37:40.061Z,13454.17
2023-03-16T11:38:40.053Z,13624.17
2023-03-16T11:39:40.011Z,12154.17
2023-03-16T11:40:40.125Z,11037.5
2023-03-16T11:41:40.004Z,11620
2023-03-16T11:42:40.008Z,12082.5
2023-03-16T11:43:40.022Z,12635
2023-03-16T11:44:40.015Z,13077.5
2023-03-16T11:45:40.049Z,13358.33
2023-03-16T11:46:40.009Z,13818.33
2023-03-16T11:47:40.025Z,14184.17
2023-03-16T11:48:40.028Z,14361.67
2023-03-16T11:49:40.027Z,14518.33
2023-03-16T11:50:40.005Z,14979.17
2023-03-16T11:51:41.813Z,14474.17
2023-03-16T11:52:40.009Z,13479.17
2023-03-16T11:53:40.004Z,12676.67
2023-03-16T11:54:40.004Z,12335.83
2023-03-16T11:55:40.013Z,12098.33
2023-03-16T11:56:40.012Z,11703.33
2023-03-16T11:57:40.018Z,11100.83
2023-03-16T11:58:40.016Z,10410.83
2023-03-16T11:59:42.296Z,9829.17
2023-03-16T12:00:40.008Z,9555
2023-03-16T12:01:43.226Z,9550.83
2023-03-16T12:02:40.077Z,9567.5
2023-03-16T12:03:40.169Z,9562.5
2023-03-16T12:04:40.012Z,9571.67
2023-03-16T12:05:40.174Z,9333.33
2023-03-16T12:06:40.005Z,8830
2023-03-16T12:07:39.994Z,8379.17
2023-03-16T12:08:40.068Z,8008.33
2023-03-16T12:09:40.267Z,7655
2023-03-16T12:10:40.003Z,7280.83
2023-03-16T12:11:41.640Z,6917.5
2023-03-16T12:12:40.073Z,6659.17
2023-03-16T12:13:40.297Z,6530
2023-03-16T12:14:40.535Z,6488.33
2023-03-16T12:15:39.989Z,6508.33
2023-03-16T12:16:48.955Z,6562.5
2023-03-16T12:17:39.994Z,6640
2023-03-16T12:18:39.997Z,6763.33
2023-03-16T12:19:40.020Z,6940.83
2023-03-16T12:20:39.996Z,7263.33
2023-03-16T12:21:40.009Z,7712.5
2023-03-16T12:22:39.996Z,8124.17
2023-03-16T12:23:40.014Z,8438.33
2023-03-16T12:24:39.993Z,8697.5
2023-03-16T12:25:40.018Z,8974.17
2023-03-16T12:26:40.006Z,9151.67
2023-03-16T12:27:40.011Z,9085.83
2023-03-16T12:28:40.004Z,8870.83
2023-03-16T12:29:39.998Z,8670.83
2023-03-16T12:30:39.996Z,8542.5
2023-03-16T12:31:40.042Z,8496.67
2023-03-16T12:32:40.017Z,8566.67
2023-03-16T12:33:40.110Z,8713.33
2023-03-16T12:34:39.992Z,8903.33
2023-03-16T12:35:40.068Z,9146.67
2023-03-16T12:36:40.013Z,9520
2023-03-16T12:37:39.991Z,10112.5
2023-03-16T12:38:39.988Z,10930.83
2023-03-16T12:39:40.027Z,11790.83
2023-03-16T12:40:39.988Z,12440
2023-03-16T12:41:39.991Z,12794.17
2023-03-16T12:42:40.008Z,13069.17
2023-03-16T12:43:40.018Z,13639.17
2023-03-16T12:44:40.089Z,14667.5
2023-03-16T12:45:40.302Z,15994.17
2023-03-16T12:46:40.160Z,17499.17
2023-03-16T12:47:40.330Z,18868.33
2023-03-16T12:48:40.276Z,21849.17
2023-03-16T12:49:40.072Z,22013.33
2023-03-16T12:50:40.058Z,21670
2023-03-16T12:51:40.000Z,20593.33
2023-03-16T12:52:40.195Z,19836.67
2023-03-16T12:53:39.993Z,19586.67
2023-03-16T12:54:40.230Z,20015.83
2023-03-16T12:55:40.022Z,19836.67
2023-03-16T12:56:40.259Z,20019.17
2023-03-16T12:57:40.006Z,22839.17
2023-03-16T12:58:39.998Z,19703.33
2023-03-16T12:59:40.016Z,17705
2023-03-16T13:00:40.028Z,16130
2023-03-16T13:01:39.987Z,15191.67
2023-03-16T13:02:39.980Z,14981.67
2023-03-16T13:03:39.999Z,15398.33
2023-03-16T13:04:40.036Z,16875.83
2023-03-16T13:05:39.998Z,21117.5
2023-03-16T13:06:39.991Z,26172.5